Etusivu
METAR-TAF:

METAR-TAF

Lentoasemat :

Lewiston-Nez Perce County Airport

Lewiston, Idaho, Yhdysvallat

Leveyspiiri: 46-22-29N, Pituuspiiri: 117-00-52W, korkeus merenpinnasta: 438 m

Tämänhetkinen sää

Tämä raportti tehtiin 1 tunti ja 10 minuuttia sitten, kello 12.56 UTC
Tuuli 5 kn idästä
Lämpötila 11°C
Kosteus 76%
Ilmanpaine 1025 hPa
Näkyvyys: 16.1 km
selkeää

METAR: KLWS 291256Z AUTO 10005KT 10SM CLR 11/07 A3026 RMK AO2 SLP243 T01110067

Aika: 07:06 (14:06 UTC)

Sääennuste

Tämä raportti tehtiin 2 tuntia ja 46 minuuttia sitten, kello 11.20 UTC
Ennuste voimassa 29. päivästä klo 12 UTC - 30. päivään klo 12 UTC
Tuuli 5 kn eri suunnista
Näkyvyys: 10 km
selkeää

TAF: KLWS 291120Z 2912/3012 VRB05KT P6SM SKC

Säähavainnot ja -ennusteet yli 4000 lentoasemalta (METAR- ja TAF-raportit).

Käytössä olevat sääasemat on merkitty karttaan keltaisilla ja punaisilla pisteillä.

Aseta hiiri pisteen päälle nähdäksesi sääaseman nimen.

Klikkaa sitten nähdäksesi säähavainnot ja -ennusteet.

Kartan vaihtaminen: klikkaa mustalla rastilla varustettuja vihreitä pisteitä, niin voit zoomata sisään; viivalla varustettua vihreää pistettä, niin voit zoomata ulos tai vihreitä nuolia, niin pääset viereisille kartoille.


METAR-TAF: